sensor_id;sensor_type;location;lat;lon;timestamp;P1;durP1;ratioP1;P2;durP2;ratioP2
21120;SDS011;12519;43.318;21.898;2022-09-16T00:02:10;8.0;;;5.0;;
21120;SDS011;12519;43.318;21.898;2022-09-16T00:06:47;9.0;;;5.0;;
21120;SDS011;12519;43.318;21.898;2022-09-16T00:11:25;9.0;;;5.0;;
21120;SDS011;12519;43.318;21.898;2022-09-16T00:16:08;8.0;;;5.0;;
21120;SDS011;12519;43.318;21.898;2022-09-16T00:21:05;8.0;;;5.0;;
21120;SDS011;12519;43.318;21.898;2022-09-16T00:25:49;6.0;;;5.0;;
21120;SDS011;12519;43.318;21.898;2022-09-16T00:30:30;6.0;;;5.0;;
21120;SDS011;12519;43.318;21.898;2022-09-16T00:35:09;6.0;;;5.0;;
21120;SDS011;12519;43.318;21.898;2022-09-16T00:39:46;6.0;;;5.0;;
21120;SDS011;12519;43.318;21.898;2022-09-16T00:44:57;6.0;;;5.0;;
21120;SDS011;12519;43.318;21.898;2022-09-16T00:49:51;7.0;;;5.0;;
21120;SDS011;12519;43.318;21.898;2022-09-16T00:54:46;7.0;;;5.0;;
21120;SDS011;12519;43.318;21.898;2022-09-16T00:59:24;6.0;;;4.0;;
21120;SDS011;12519;43.318;21.898;2022-09-16T01:04:12;6.0;;;4.0;;
21120;SDS011;12519;43.318;21.898;2022-09-16T01:09:04;4.0;;;4.0;;
21120;SDS011;12519;43.318;21.898;2022-09-16T01:13:41;4.0;;;4.0;;
21120;SDS011;12519;43.318;21.898;2022-09-16T01:18:24;6.0;;;4.0;;
21120;SDS011;12519;43.318;21.898;2022-09-16T01:23:32;6.0;;;4.0;;
21120;SDS011;12519;43.318;21.898;2022-09-16T01:29:38;8.0;;;5.0;;
21120;SDS011;12519;43.318;21.898;2022-09-16T01:35:44;10.0;;;4.0;;
21120;SDS011;12519;43.318;21.898;2022-09-16T01:41:24;10.0;;;4.0;;
21120;SDS011;12519;43.318;21.898;2022-09-16T01:47:03;12.0;;;4.0;;
21120;SDS011;12519;43.318;21.898;2022-09-16T01:52:23;12.0;;;4.0;;
21120;SDS011;12519;43.318;21.898;2022-09-16T01:57:49;10.0;;;5.0;;
21120;SDS011;12519;43.318;21.898;2022-09-16T02:02:57;10.0;;;5.0;;
21120;SDS011;12519;43.318;21.898;2022-09-16T02:08:01;7.0;;;6.0;;
21120;SDS011;12519;43.318;21.898;2022-09-16T02:13:10;7.0;;;6.0;;
21120;SDS011;12519;43.318;21.898;2022-09-16T02:18:21;9.0;;;6.0;;
21120;SDS011;12519;43.318;21.898;2022-09-16T02:23:30;9.0;;;6.0;;
21120;SDS011;12519;43.318;21.898;2022-09-16T02:28:37;11.0;;;5.0;;
21120;SDS011;12519;43.318;21.898;2022-09-16T02:33:34;11.0;;;5.0;;
21120;SDS011;12519;43.318;21.898;2022-09-16T02:38:43;10.0;;;5.0;;
21120;SDS011;12519;43.318;21.898;2022-09-16T02:43:43;10.0;;;5.0;;
21120;SDS011;12519;43.318;21.898;2022-09-16T02:48:24;8.0;;;5.0;;
21120;SDS011;12519;43.318;21.898;2022-09-16T02:53:55;8.0;;;5.0;;
21120;SDS011;12519;43.318;21.898;2022-09-16T02:59:17;7.0;;;4.0;;
21120;SDS011;12519;43.318;21.898;2022-09-16T03:03:55;7.0;;;4.0;;
21120;SDS011;12519;43.318;21.898;2022-09-16T03:08:33;6.0;;;3.0;;
21120;SDS011;12519;43.318;21.898;2022-09-16T03:13:20;6.0;;;3.0;;
21120;SDS011;12519;43.318;21.898;2022-09-16T03:19:10;5.0;;;4.0;;
21120;SDS011;12519;43.318;21.898;2022-09-16T03:24:24;5.0;;;4.0;;
21120;SDS011;12519;43.318;21.898;2022-09-16T03:29:47;4.0;;;4.0;;
21120;SDS011;12519;43.318;21.898;2022-09-16T03:34:44;4.0;;;4.0;;
21120;SDS011;12519;43.318;21.898;2022-09-16T03:39:36;4.0;;;4.0;;
21120;SDS011;12519;43.318;21.898;2022-09-16T03:44:16;4.0;;;4.0;;
21120;SDS011;12519;43.318;21.898;2022-09-16T03:48:53;5.0;;;3.0;;
21120;SDS011;12519;43.318;21.898;2022-09-16T03:53:30;5.0;;;3.0;;
21120;SDS011;12519;43.318;21.898;2022-09-16T03:58:06;5.0;;;4.0;;
21120;SDS011;12519;43.318;21.898;2022-09-16T04:02:43;5.0;;;4.0;;
21120;SDS011;12519;43.318;21.898;2022-09-16T04:07:19;5.0;;;4.0;;
21120;SDS011;12519;43.318;21.898;2022-09-16T04:11:55;5.0;;;4.0;;
21120;SDS011;12519;43.318;21.898;2022-09-16T04:16:32;6.0;;;4.0;;
21120;SDS011;12519;43.318;21.898;2022-09-16T04:21:10;6.0;;;4.0;;
21120;SDS011;12519;43.318;21.898;2022-09-16T04:25:52;6.0;;;4.0;;
21120;SDS011;12519;43.318;21.898;2022-09-16T04:30:32;6.0;;;4.0;;
21120;SDS011;12519;43.318;21.898;2022-09-16T04:35:11;6.0;;;4.0;;
21120;SDS011;12519;43.318;21.898;2022-09-16T04:39:48;5.0;;;4.0;;
21120;SDS011;12519;43.318;21.898;2022-09-16T04:44:25;5.0;;;4.0;;
21120;SDS011;12519;43.318;21.898;2022-09-16T04:49:02;4.0;;;3.0;;
21120;SDS011;12519;43.318;21.898;2022-09-16T04:53:40;4.0;;;3.0;;
21120;SDS011;12519;43.318;21.898;2022-09-16T04:58:21;9.0;;;5.0;;
21120;SDS011;12519;43.318;21.898;2022-09-16T05:02:58;9.0;;;5.0;;
21120;SDS011;12519;43.318;21.898;2022-09-16T05:07:35;14.0;;;7.0;;
21120;SDS011;12519;43.318;21.898;2022-09-16T05:12:12;14.0;;;7.0;;
21120;SDS011;12519;43.318;21.898;2022-09-16T05:16:49;12.0;;;7.0;;
21120;SDS011;12519;43.318;21.898;2022-09-16T05:21:26;12.0;;;7.0;;
21120;SDS011;12519;43.318;21.898;2022-09-16T05:26:06;11.0;;;7.0;;
21120;SDS011;12519;43.318;21.898;2022-09-16T05:31:05;11.0;;;7.0;;
21120;SDS011;12519;43.318;21.898;2022-09-16T05:35:55;10.0;;;8.0;;
21120;SDS011;12519;43.318;21.898;2022-09-16T05:40:50;10.0;;;8.0;;
21120;SDS011;12519;43.318;21.898;2022-09-16T05:45:27;10.0;;;8.0;;
21120;SDS011;12519;43.318;21.898;2022-09-16T05:50:04;10.0;;;8.0;;
21120;SDS011;12519;43.318;21.898;2022-09-16T05:54:44;10.0;;;8.0;;
21120;SDS011;12519;43.318;21.898;2022-09-16T05:59:21;10.0;;;8.0;;
21120;SDS011;12519;43.318;21.898;2022-09-16T06:03:59;10.0;;;8.0;;
21120;SDS011;12519;43.318;21.898;2022-09-16T06:08:44;11.0;;;9.0;;
21120;SDS011;12519;43.318;21.898;2022-09-16T06:13:21;11.0;;;9.0;;
21120;SDS011;12519;43.318;21.898;2022-09-16T06:17:57;12.0;;;9.0;;
21120;SDS011;12519;43.318;21.898;2022-09-16T06:22:34;12.0;;;9.0;;
21120;SDS011;12519;43.318;21.898;2022-09-16T06:27:10;13.0;;;9.0;;
21120;SDS011;12519;43.318;21.898;2022-09-16T06:31:46;13.0;;;9.0;;
21120;SDS011;12519;43.318;21.898;2022-09-16T06:36:23;12.0;;;8.0;;
21120;SDS011;12519;43.318;21.898;2022-09-16T06:41:10;12.0;;;8.0;;
21120;SDS011;12519;43.318;21.898;2022-09-16T06:45:54;11.0;;;7.0;;
21120;SDS011;12519;43.318;21.898;2022-09-16T06:50:34;11.0;;;7.0;;
21120;SDS011;12519;43.318;21.898;2022-09-16T06:55:11;11.0;;;7.0;;
21120;SDS011;12519;43.318;21.898;2022-09-16T06:59:49;11.0;;;8.0;;
21120;SDS011;12519;43.318;21.898;2022-09-16T07:04:27;11.0;;;8.0;;
21120;SDS011;12519;43.318;21.898;2022-09-16T07:09:04;11.0;;;8.0;;
21120;SDS011;12519;43.318;21.898;2022-09-16T07:13:41;11.0;;;8.0;;
21120;SDS011;12519;43.318;21.898;2022-09-16T07:18:25;11.0;;;8.0;;
21120;SDS011;12519;43.318;21.898;2022-09-16T07:23:02;11.0;;;8.0;;
21120;SDS011;12519;43.318;21.898;2022-09-16T07:27:39;11.0;;;8.0;;
21120;SDS011;12519;43.318;21.898;2022-09-16T07:32:16;11.0;;;8.0;;
21120;SDS011;12519;43.318;21.898;2022-09-16T07:36:54;10.0;;;8.0;;
21120;SDS011;12519;43.318;21.898;2022-09-16T07:41:32;10.0;;;8.0;;
21120;SDS011;12519;43.318;21.898;2022-09-16T07:46:21;8.0;;;7.0;;
21120;SDS011;12519;43.318;21.898;2022-09-16T07:50:59;8.0;;;7.0;;
21120;SDS011;12519;43.318;21.898;2022-09-16T07:55:49;8.0;;;8.0;;
21120;SDS011;12519;43.318;21.898;2022-09-16T08:00:26;8.0;;;8.0;;
21120;SDS011;12519;43.318;21.898;2022-09-16T08:05:03;8.0;;;8.0;;
21120;SDS011;12519;43.318;21.898;2022-09-16T08:09:43;9.0;;;8.0;;
21120;SDS011;12519;43.318;21.898;2022-09-16T08:14:20;9.0;;;8.0;;
21120;SDS011;12519;43.318;21.898;2022-09-16T08:18:58;8.0;;;8.0;;
21120;SDS011;12519;43.318;21.898;2022-09-16T08:23:36;8.0;;;8.0;;
21120;SDS011;12519;43.318;21.898;2022-09-16T08:28:17;8.0;;;7.0;;
21120;SDS011;12519;43.318;21.898;2022-09-16T08:32:55;8.0;;;7.0;;
21120;SDS011;12519;43.318;21.898;2022-09-16T08:37:34;10.0;;;8.0;;
21120;SDS011;12519;43.318;21.898;2022-09-16T08:42:28;10.0;;;8.0;;
21120;SDS011;12519;43.318;21.898;2022-09-16T08:47:51;12.0;;;9.0;;
21120;SDS011;12519;43.318;21.898;2022-09-16T08:53:22;12.0;;;9.0;;
21120;SDS011;12519;43.318;21.898;2022-09-16T08:58:29;12.0;;;10.0;;
21120;SDS011;12519;43.318;21.898;2022-09-16T09:03:23;12.0;;;10.0;;
21120;SDS011;12519;43.318;21.898;2022-09-16T09:08:20;11.0;;;11.0;;
21120;SDS011;12519;43.318;21.898;2022-09-16T09:13:35;11.0;;;11.0;;
21120;SDS011;12519;43.318;21.898;2022-09-16T09:18:55;12.0;;;10.0;;
21120;SDS011;12519;43.318;21.898;2022-09-16T09:24:33;12.0;;;10.0;;
21120;SDS011;12519;43.318;21.898;2022-09-16T09:30:38;13.0;;;9.0;;
21120;SDS011;12519;43.318;21.898;2022-09-16T09:36:06;13.0;;;9.0;;
21120;SDS011;12519;43.318;21.898;2022-09-16T09:42:02;11.0;;;9.0;;
21120;SDS011;12519;43.318;21.898;2022-09-16T09:47:10;9.0;;;9.0;;
21120;SDS011;12519;43.318;21.898;2022-09-16T09:52:16;9.0;;;9.0;;
21120;SDS011;12519;43.318;21.898;2022-09-16T09:57:29;11.0;;;9.0;;
21120;SDS011;12519;43.318;21.898;2022-09-16T10:02:45;11.0;;;9.0;;
21120;SDS011;12519;43.318;21.898;2022-09-16T10:07:23;13.0;;;9.0;;
21120;SDS011;12519;43.318;21.898;2022-09-16T10:12:04;13.0;;;9.0;;
21120;SDS011;12519;43.318;21.898;2022-09-16T10:16:43;13.0;;;9.0;;
21120;SDS011;12519;43.318;21.898;2022-09-16T10:21:48;13.0;;;9.0;;
21120;SDS011;12519;43.318;21.898;2022-09-16T10:27:00;13.0;;;9.0;;
21120;SDS011;12519;43.318;21.898;2022-09-16T10:32:08;13.0;;;9.0;;
21120;SDS011;12519;43.318;21.898;2022-09-16T10:36:58;10.0;;;8.0;;
21120;SDS011;12519;43.318;21.898;2022-09-16T10:41:56;10.0;;;8.0;;
21120;SDS011;12519;43.318;21.898;2022-09-16T10:46:48;8.0;;;7.0;;
21120;SDS011;12519;43.318;21.898;2022-09-16T10:51:50;8.0;;;7.0;;
21120;SDS011;12519;43.318;21.898;2022-09-16T10:56:28;8.0;;;6.0;;
21120;SDS011;12519;43.318;21.898;2022-09-16T11:01:28;8.0;;;6.0;;
21120;SDS011;12519;43.318;21.898;2022-09-16T11:07:22;9.0;;;5.0;;
21120;SDS011;12519;43.318;21.898;2022-09-16T11:14:00;9.0;;;5.0;;
21120;SDS011;12519;43.318;21.898;2022-09-16T11:19:36;6.0;;;4.0;;
21120;SDS011;12519;43.318;21.898;2022-09-16T11:25:31;6.0;;;4.0;;
21120;SDS011;12519;43.318;21.898;2022-09-16T11:30:45;4.0;;;4.0;;
21120;SDS011;12519;43.318;21.898;2022-09-16T11:36:14;4.0;;;4.0;;
21120;SDS011;12519;43.318;21.898;2022-09-16T11:41:37;4.0;;;4.0;;
21120;SDS011;12519;43.318;21.898;2022-09-16T11:46:42;4.0;;;4.0;;
21120;SDS011;12519;43.318;21.898;2022-09-16T11:51:59;4.0;;;4.0;;
21120;SDS011;12519;43.318;21.898;2022-09-16T11:57:23;5.0;;;4.0;;
21120;SDS011;12519;43.318;21.898;2022-09-16T12:02:16;5.0;;;4.0;;
21120;SDS011;12519;43.318;21.898;2022-09-16T12:07:12;6.0;;;4.0;;
21120;SDS011;12519;43.318;21.898;2022-09-16T12:12:08;6.0;;;4.0;;
21120;SDS011;12519;43.318;21.898;2022-09-16T12:17:07;8.0;;;4.0;;
21120;SDS011;12519;43.318;21.898;2022-09-16T12:22:07;8.0;;;4.0;;
21120;SDS011;12519;43.318;21.898;2022-09-16T12:27:08;11.0;;;5.0;;
21120;SDS011;12519;43.318;21.898;2022-09-16T12:32:30;11.0;;;5.0;;
21120;SDS011;12519;43.318;21.898;2022-09-16T12:37:44;8.0;;;4.0;;
21120;SDS011;12519;43.318;21.898;2022-09-16T12:42:38;8.0;;;4.0;;
21120;SDS011;12519;43.318;21.898;2022-09-16T12:49:08;6.0;;;3.0;;
21120;SDS011;12519;43.318;21.898;2022-09-16T12:55:42;6.0;;;3.0;;
21120;SDS011;12519;43.318;21.898;2022-09-16T13:01:34;6.0;;;4.0;;
21120;SDS011;12519;43.318;21.898;2022-09-16T13:06:33;5.0;;;4.0;;
21120;SDS011;12519;43.318;21.898;2022-09-16T13:11:30;5.0;;;4.0;;
21120;SDS011;12519;43.318;21.898;2022-09-16T13:16:08;5.0;;;4.0;;
21120;SDS011;12519;43.318;21.898;2022-09-16T13:20:46;5.0;;;4.0;;
21120;SDS011;12519;43.318;21.898;2022-09-16T13:25:57;5.0;;;4.0;;
21120;SDS011;12519;43.318;21.898;2022-09-16T13:30:44;5.0;;;4.0;;
21120;SDS011;12519;43.318;21.898;2022-09-16T13:35:22;5.0;;;4.0;;
21120;SDS011;12519;43.318;21.898;2022-09-16T13:40:22;6.0;;;6.0;;
21120;SDS011;12519;43.318;21.898;2022-09-16T13:45:28;6.0;;;6.0;;
21120;SDS011;12519;43.318;21.898;2022-09-16T13:50:21;8.0;;;7.0;;
21120;SDS011;12519;43.318;21.898;2022-09-16T13:55:04;8.0;;;7.0;;
21120;SDS011;12519;43.318;21.898;2022-09-16T14:00:05;7.0;;;6.0;;
21120;SDS011;12519;43.318;21.898;2022-09-16T14:05:01;7.0;;;6.0;;
21120;SDS011;12519;43.318;21.898;2022-09-16T14:10:35;6.0;;;5.0;;
21120;SDS011;12519;43.318;21.898;2022-09-16T14:15:46;6.0;;;5.0;;
21120;SDS011;12519;43.318;21.898;2022-09-16T14:20:34;6.0;;;5.0;;
21120;SDS011;12519;43.318;21.898;2022-09-16T14:25:23;6.0;;;5.0;;
21120;SDS011;12519;43.318;21.898;2022-09-16T14:30:12;6.0;;;5.0;;
21120;SDS011;12519;43.318;21.898;2022-09-16T14:34:54;6.0;;;5.0;;
21120;SDS011;12519;43.318;21.898;2022-09-16T14:39:44;6.0;;;4.0;;
21120;SDS011;12519;43.318;21.898;2022-09-16T14:44:24;6.0;;;4.0;;
21120;SDS011;12519;43.318;21.898;2022-09-16T14:49:14;7.0;;;4.0;;
21120;SDS011;12519;43.318;21.898;2022-09-16T14:53:56;7.0;;;4.0;;
21120;SDS011;12519;43.318;21.898;2022-09-16T14:58:35;6.0;;;4.0;;
21120;SDS011;12519;43.318;21.898;2022-09-16T15:03:13;6.0;;;4.0;;
21120;SDS011;12519;43.318;21.898;2022-09-16T15:08:22;4.0;;;3.0;;
21120;SDS011;12519;43.318;21.898;2022-09-16T15:13:26;4.0;;;3.0;;
21120;SDS011;12519;43.318;21.898;2022-09-16T15:18:21;4.0;;;3.0;;
21120;SDS011;12519;43.318;21.898;2022-09-16T15:23:15;4.0;;;3.0;;
21120;SDS011;12519;43.318;21.898;2022-09-16T16:01:45;18.0;;;13.0;;
21120;SDS011;12519;43.318;21.898;2022-09-16T16:06:52;18.0;;;13.0;;
21120;SDS011;12519;43.318;21.898;2022-09-16T16:11:34;18.0;;;13.0;;
21120;SDS011;12519;43.318;21.898;2022-09-16T16:16:15;18.0;;;13.0;;
21120;SDS011;12519;43.318;21.898;2022-09-16T16:20:55;14.0;;;12.0;;
21120;SDS011;12519;43.318;21.898;2022-09-16T16:25:32;14.0;;;12.0;;
21120;SDS011;12519;43.318;21.898;2022-09-16T16:30:11;11.0;;;11.0;;
21120;SDS011;12519;43.318;21.898;2022-09-16T16:34:50;11.0;;;11.0;;
21120;SDS011;12519;43.318;21.898;2022-09-16T16:39:27;12.0;;;10.0;;
21120;SDS011;12519;43.318;21.898;2022-09-16T16:44:05;12.0;;;10.0;;
21120;SDS011;12519;43.318;21.898;2022-09-16T16:48:43;12.0;;;9.0;;
21120;SDS011;12519;43.318;21.898;2022-09-16T16:53:19;12.0;;;9.0;;
21120;SDS011;12519;43.318;21.898;2022-09-16T16:57:56;10.0;;;8.0;;
21120;SDS011;12519;43.318;21.898;2022-09-16T17:02:32;10.0;;;8.0;;
21120;SDS011;12519;43.318;21.898;2022-09-16T17:07:09;8.0;;;6.0;;
21120;SDS011;12519;43.318;21.898;2022-09-16T17:11:52;8.0;;;6.0;;
21120;SDS011;12519;43.318;21.898;2022-09-16T17:16:33;8.0;;;6.0;;
21120;SDS011;12519;43.318;21.898;2022-09-16T17:21:13;10.0;;;6.0;;
21120;SDS011;12519;43.318;21.898;2022-09-16T17:25:53;10.0;;;6.0;;
21120;SDS011;12519;43.318;21.898;2022-09-16T17:30:29;13.0;;;7.0;;
21120;SDS011;12519;43.318;21.898;2022-09-16T17:35:07;13.0;;;7.0;;
21120;SDS011;12519;43.318;21.898;2022-09-16T17:39:45;11.0;;;8.0;;
21120;SDS011;12519;43.318;21.898;2022-09-16T17:44:22;11.0;;;8.0;;
21120;SDS011;12519;43.318;21.898;2022-09-16T17:49:02;9.0;;;8.0;;
21120;SDS011;12519;43.318;21.898;2022-09-16T17:53:50;9.0;;;8.0;;
21120;SDS011;12519;43.318;21.898;2022-09-16T17:58:27;8.0;;;6.0;;
21120;SDS011;12519;43.318;21.898;2022-09-16T18:03:04;8.0;;;6.0;;
21120;SDS011;12519;43.318;21.898;2022-09-16T18:07:44;7.0;;;5.0;;
21120;SDS011;12519;43.318;21.898;2022-09-16T18:12:21;7.0;;;5.0;;
21120;SDS011;12519;43.318;21.898;2022-09-16T18:16:59;7.0;;;5.0;;
21120;SDS011;12519;43.318;21.898;2022-09-16T18:21:38;8.0;;;6.0;;
21120;SDS011;12519;43.318;21.898;2022-09-16T18:26:16;8.0;;;6.0;;
21120;SDS011;12519;43.318;21.898;2022-09-16T18:31:04;10.0;;;8.0;;
21120;SDS011;12519;43.318;21.898;2022-09-16T18:35:50;10.0;;;8.0;;
21120;SDS011;12519;43.318;21.898;2022-09-16T18:40:36;12.0;;;9.0;;
21120;SDS011;12519;43.318;21.898;2022-09-16T18:45:14;12.0;;;9.0;;
21120;SDS011;12519;43.318;21.898;2022-09-16T18:49:51;15.0;;;10.0;;
21120;SDS011;12519;43.318;21.898;2022-09-16T18:54:28;15.0;;;10.0;;
21120;SDS011;12519;43.318;21.898;2022-09-16T18:59:13;20.0;;;14.0;;
21120;SDS011;12519;43.318;21.898;2022-09-16T19:04:07;20.0;;;14.0;;
21120;SDS011;12519;43.318;21.898;2022-09-16T19:08:49;25.0;;;19.0;;
21120;SDS011;12519;43.318;21.898;2022-09-16T19:13:27;25.0;;;19.0;;
21120;SDS011;12519;43.318;21.898;2022-09-16T19:18:04;21.0;;;16.0;;
21120;SDS011;12519;43.318;21.898;2022-09-16T19:22:42;21.0;;;16.0;;
21120;SDS011;12519;43.318;21.898;2022-09-16T19:27:19;17.0;;;13.0;;
21120;SDS011;12519;43.318;21.898;2022-09-16T19:31:55;17.0;;;13.0;;
21120;SDS011;12519;43.318;21.898;2022-09-16T19:36:35;17.0;;;13.0;;
21120;SDS011;12519;43.318;21.898;2022-09-16T19:41:17;18.0;;;14.0;;
21120;SDS011;12519;43.318;21.898;2022-09-16T19:46:04;18.0;;;14.0;;
21120;SDS011;12519;43.318;21.898;2022-09-16T19:50:50;18.0;;;14.0;;
21120;SDS011;12519;43.318;21.898;2022-09-16T19:55:27;18.0;;;14.0;;
21120;SDS011;12519;43.318;21.898;2022-09-16T20:00:06;22.0;;;18.0;;
21120;SDS011;12519;43.318;21.898;2022-09-16T20:04:45;22.0;;;18.0;;
21120;SDS011;12519;43.318;21.898;2022-09-16T20:09:21;26.0;;;21.0;;
21120;SDS011;12519;43.318;21.898;2022-09-16T20:14:02;26.0;;;21.0;;
21120;SDS011;12519;43.318;21.898;2022-09-16T20:18:52;22.0;;;18.0;;
21120;SDS011;12519;43.318;21.898;2022-09-16T20:23:31;22.0;;;18.0;;
21120;SDS011;12519;43.318;21.898;2022-09-16T20:28:11;18.0;;;16.0;;
21120;SDS011;12519;43.318;21.898;2022-09-16T20:32:48;18.0;;;16.0;;
21120;SDS011;12519;43.318;21.898;2022-09-16T20:37:24;23.0;;;20.0;;
21120;SDS011;12519;43.318;21.898;2022-09-16T20:42:01;23.0;;;20.0;;
21120;SDS011;12519;43.318;21.898;2022-09-16T20:46:39;23.0;;;20.0;;
21120;SDS011;12519;43.318;21.898;2022-09-16T20:51:21;28.0;;;25.0;;
21120;SDS011;12519;43.318;21.898;2022-09-16T20:56:12;28.0;;;25.0;;
21120;SDS011;12519;43.318;21.898;2022-09-16T21:00:52;23.0;;;21.0;;
21120;SDS011;12519;43.318;21.898;2022-09-16T21:05:30;23.0;;;21.0;;
21120;SDS011;12519;43.318;21.898;2022-09-16T21:10:08;18.0;;;17.0;;
21120;SDS011;12519;43.318;21.898;2022-09-16T21:14:46;18.0;;;17.0;;
21120;SDS011;12519;43.318;21.898;2022-09-16T21:19:24;16.0;;;14.0;;
21120;SDS011;12519;43.318;21.898;2022-09-16T21:24:02;16.0;;;14.0;;
21120;SDS011;12519;43.318;21.898;2022-09-16T21:28:44;15.0;;;11.0;;
21120;SDS011;12519;43.318;21.898;2022-09-16T21:33:34;15.0;;;11.0;;
21120;SDS011;12519;43.318;21.898;2022-09-16T21:38:15;14.0;;;10.0;;
21120;SDS011;12519;43.318;21.898;2022-09-16T21:42:52;14.0;;;10.0;;
21120;SDS011;12519;43.318;21.898;2022-09-16T21:47:29;14.0;;;10.0;;
21120;SDS011;12519;43.318;21.898;2022-09-16T21:52:08;14.0;;;10.0;;
21120;SDS011;12519;43.318;21.898;2022-09-16T21:56:47;14.0;;;10.0;;
21120;SDS011;12519;43.318;21.898;2022-09-16T22:01:29;12.0;;;10.0;;
21120;SDS011;12519;43.318;21.898;2022-09-16T22:06:11;12.0;;;10.0;;
21120;SDS011;12519;43.318;21.898;2022-09-16T22:10:51;11.0;;;10.0;;
21120;SDS011;12519;43.318;21.898;2022-09-16T22:15:28;11.0;;;10.0;;
21120;SDS011;12519;43.318;21.898;2022-09-16T22:20:06;9.0;;;8.0;;
21120;SDS011;12519;43.318;21.898;2022-09-16T22:24:44;9.0;;;8.0;;
21120;SDS011;12519;43.318;21.898;2022-09-16T22:29:20;7.0;;;7.0;;
21120;SDS011;12519;43.318;21.898;2022-09-16T22:34:00;7.0;;;7.0;;
21120;SDS011;12519;43.318;21.898;2022-09-16T22:38:37;8.0;;;8.0;;
21120;SDS011;12519;43.318;21.898;2022-09-16T22:43:15;8.0;;;8.0;;
21120;SDS011;12519;43.318;21.898;2022-09-16T22:47:51;10.0;;;9.0;;
21120;SDS011;12519;43.318;21.898;2022-09-16T22:52:28;10.0;;;9.0;;
21120;SDS011;12519;43.318;21.898;2022-09-16T22:57:07;10.0;;;9.0;;
21120;SDS011;12519;43.318;21.898;2022-09-16T23:01:45;10.0;;;8.0;;
21120;SDS011;12519;43.318;21.898;2022-09-16T23:06:27;10.0;;;8.0;;
21120;SDS011;12519;43.318;21.898;2022-09-16T23:11:14;10.0;;;8.0;;
21120;SDS011;12519;43.318;21.898;2022-09-16T23:16:02;10.0;;;8.0;;
21120;SDS011;12519;43.318;21.898;2022-09-16T23:20:41;9.0;;;8.0;;
21120;SDS011;12519;43.318;21.898;2022-09-16T23:25:18;9.0;;;8.0;;
21120;SDS011;12519;43.318;21.898;2022-09-16T23:29:55;8.0;;;7.0;;
21120;SDS011;12519;43.318;21.898;2022-09-16T23:34:32;8.0;;;7.0;;
21120;SDS011;12519;43.318;21.898;2022-09-16T23:39:13;8.0;;;6.0;;
21120;SDS011;12519;43.318;21.898;2022-09-16T23:43:55;8.0;;;6.0;;
21120;SDS011;12519;43.318;21.898;2022-09-16T23:48:33;7.0;;;6.0;;
21120;SDS011;12519;43.318;21.898;2022-09-16T23:53:12;7.0;;;6.0;;
21120;SDS011;12519;43.318;21.898;2022-09-16T23:57:50;7.0;;;6.0;;
